Portada
METAR-TAF:

METAR-TAF

Aeroports :

Àstrakhan, Rússia

latitud: 46-17N, longitud: 048-00-23E, altitud: 0 m

Observació

L'informe es va fer fa 25 minuts, a les 22:30 UTC
Vent 10 kt del Est/Nord-Est
Temperatura 10°C
Humitat 71%
Pressió 1030 hPa
Visibilitat 10 km o més
sense núvols per sota de 1500 mi sense presència de cumulonimbus.

METAR: URWA 282230Z 07005MPS CAVOK 10/05 Q1030 R09/010070 NOSIG RMK QFE774/1032

Hora: 02:55 (22:55 UTC)

Pronòstic

L'informe es va fer fa 2 hores i 55 minuts, a les 20:00 UTC
Pronòstic vàlid del 28 a les 21 UTC al 29 a les 06 UTC
Vent 12 kt del Est/Nord-Est amb ràfegues de 21 kt
Visibilitat 10 km o més
sense núvols per sota de 1500 mi sense presència de cumulonimbus.

TAF: URWA 282000Z 2821/2906 06006G11MPS CAVOK

Observacions i pronòstics meteorològics de més de 4000 aeroports (METAR i TAF).

Les estacions disponibles són els punts grocs i vermells al mapa.

Posi el ratolí al punt desitjat per veure el nom de l'estació.

Feu clic per veure les observacions i els pronòstics meteorològics.

Per canviar el mapa: feu clic els botons verds amb una creu de color negre per apropar; al botó verd amb un guió per allunyar la imatge; o en les fletxes verdes per a mapes adjacents.


METAR-TAF: